Time;durP1;ratioP1;P1;durP2;ratioP2;P2;SDS_P1;SDS_P2;PMS_P1;PMS_P2;Temp;Humidity;BMP_temperature;BMP_pressure;BME280_temperature;BME280_humidity;BME280_pressure;Samples;Min_cycle;Max_cycle;Signal;HPM_P1;HPM_P2
2021/03/01 00:02:01;;;;;;;;;;;;;;;12.52;37.60;102237.94;5078639;28;20375;-81
2021/03/01 00:04:47;;;;;;;;;;;;;;;12.46;37.64;102229.00;5060652;28;19916;-81
2021/03/01 00:07:32;;;;;;;;;;;;;;;12.44;37.83;102231.22;5054544;28;19912;-81
2021/03/01 00:10:18;;;;;;;;;;;;;;;12.38;38.10;102235.94;5051838;28;19916;-81
2021/03/01 00:13:03;;;;;;;;;;;;;;;12.34;38.22;102242.25;5055625;28;20386;-81
2021/03/01 00:15:48;;;;;;;;;;;;;;;12.31;38.11;102240.09;5047242;28;19912;-81
2021/03/01 00:18:35;;;;;;;;;;;;;;;12.31;38.13;102240.09;5059288;28;19912;-81
2021/03/01 00:21:19;;;;;;;;;;;;;;;12.22;38.46;102239.09;5048847;28;19912;-81
2021/03/01 00:24:04;;;;;;;;;;;;;;;12.15;38.91;102244.91;5076299;28;19912;-81
2021/03/01 00:26:49;;;;;;;;;;;;;;;12.17;38.73;102241.88;5060006;28;19912;-81
2021/03/01 00:29:33;;;;;;;;;;;;;;;12.10;38.89;102250.41;5058955;28;19912;-81
2021/03/01 00:32:18;;;;;;;;;;;;;;;12.10;38.78;102246.84;5060867;28;20391;-81
2021/03/01 00:35:03;;;;;;;;;;;;;;;12.08;38.44;102246.34;5076232;28;19912;-81
2021/03/01 00:37:47;;;;;;;;;;;;;;;12.06;38.71;102248.53;5058515;28;19920;-81
2021/03/01 00:40:33;;;;;;;;;;;;;;;11.98;38.78;102245.34;5063358;28;19912;-80
2021/03/01 00:43:17;;;;;;;;;;;;;;;11.92;38.56;102241.03;5060248;28;19916;-81
2021/03/01 00:46:02;;;;;;;;;;;;;;;11.87;38.94;102241.09;5051508;28;19912;-81
2021/03/01 00:48:47;;;;;;;;;;;;;;;11.71;39.62;102233.28;5056350;28;19912;-82
2021/03/01 00:51:31;;;;;;;;;;;;;;;11.79;39.40;102230.78;5059459;28;20429;-82
2021/03/01 00:54:16;;;;;;;;;;;;;;;11.81;39.28;102230.50;5068064;28;19913;-81
2021/03/01 00:57:12;;;;;;;;;;;;;;;11.81;39.02;102228.59;5066396;28;19912;-81
2021/03/01 00:59:58;;;;;;;;;;;;;;;11.80;39.18;102231.59;5043659;28;20383;-80
2021/03/01 01:02:43;;;;;;;;;;;;;;;11.82;39.08;102226.69;5052642;28;19914;-81
2021/03/01 01:05:43;;;;;;;;;;;;;;;11.79;39.08;102225.31;5065507;28;19913;-81
2021/03/01 01:08:28;;;;;;;;;;;;;;;11.77;39.00;102219.38;5057999;28;19916;-80
2021/03/01 01:11:14;;;;;;;;;;;;;;;11.80;39.71;102223.41;5055581;28;19917;-80
2021/03/01 01:14:00;;;;;;;;;;;;;;;11.81;39.01;102216.88;5065108;28;19920;-80
2021/03/01 01:16:45;;;;;;;;;;;;;;;11.75;38.86;102216.09;5050347;28;19912;-81
2021/03/01 01:19:29;;;;;;;;;;;;;;;11.71;39.18;102217.75;5046726;28;19913;-80
2021/03/01 01:22:14;;;;;;;;;;;;;;;11.75;39.54;102216.09;5057649;28;19916;-80
2021/03/01 01:24:59;;;;;;;;;;;;;;;11.78;40.69;102217.47;5050713;28;19916;-80
2021/03/01 01:27:44;;;;;;;;;;;;;;;11.75;40.22;102207.94;5061405;28;19913;-80
2021/03/01 01:30:29;;;;;;;;;;;;;;;11.80;40.69;102204.34;5058695;28;19921;-81
2021/03/01 01:33:13;;;;;;;;;;;;;;;11.84;41.36;102205.38;5059021;28;19916;-80
2021/03/01 01:35:57;;;;;;;;;;;;;;;11.85;42.58;102190.66;5048810;23;19933;-78
2021/03/01 01:38:43;;;;;;;;;;;;;;;11.88;42.79;102196.38;5070660;28;19916;-77
2021/03/01 01:41:28;;;;;;;;;;;;;;;11.91;42.01;102198.50;5047424;28;20302;-79
2021/03/01 01:44:13;;;;;;;;;;;;;;;11.84;40.75;102192.56;5059604;28;20390;-79
2021/03/01 01:46:57;;;;;;;;;;;;;;;11.81;40.76;102189.63;5056418;28;19912;-78
2021/03/01 01:49:42;;;;;;;;;;;;;;;11.78;41.00;102190.22;5060549;28;19912;-78
2021/03/01 01:52:27;;;;;;;;;;;;;;;11.71;40.65;102185.06;5056603;28;19912;-78
2021/03/01 01:55:12;;;;;;;;;;;;;;;11.68;41.04;102185.63;5037526;28;19913;-77
2021/03/01 01:57:57;;;;;;;;;;;;;;;11.63;41.03;102177.47;5061819;28;19912;-78
2021/03/01 02:00:46;;;;;;;;;;;;;;;11.58;41.34;102180.25;5068726;28;19912;-79
2021/03/01 02:03:31;;;;;;;;;;;;;;;11.62;42.38;102180.50;5056519;28;19916;-79
2021/03/01 02:06:30;;;;;;;;;;;;;;;11.58;41.71;102177.53;5041587;28;19912;-77
2021/03/01 02:09:15;;;;;;;;;;;;;;;11.48;42.09;102172.97;5068007;28;19912;-78
2021/03/01 02:12:03;;;;;;;;;;;;;;;11.34;43.18;102171.19;5061481;28;19924;-80
2021/03/01 02:14:50;;;;;;;;;;;;;;;11.37;43.54;102173.38;5056270;28;19904;-79
2021/03/01 02:17:35;;;;;;;;;;;;;;;11.39;43.14;102165.72;5070641;28;19912;-80
2021/03/01 02:20:20;;;;;;;;;;;;;;;11.27;43.75;102166.09;5052880;28;19912;-80
2021/03/01 02:23:05;;;;;;;;;;;;;;;11.32;43.81;102166.06;5054297;28;19912;-82
2021/03/01 02:25:49;;;;;;;;;;;;;;;11.23;44.13;102158.75;5070195;28;19912;-83
2021/03/01 02:28:37;;;;;;;;;;;;;;;11.19;44.35;102161.22;5051557;28;20314;-83
2021/03/01 02:31:23;;;;;;;;;;;;;;;11.05;44.71;102157.53;5049253;28;19924;-82
2021/03/01 02:34:08;;;;;;;;;;;;;;;11.07;44.13;102168.97;5052921;28;19912;-84
2021/03/01 02:36:55;;;;;;;;;;;;;;;11.21;43.67;102164.50;5071282;28;20318;-81
2021/03/01 02:39:44;;;;;;;;;;;;;;;11.27;43.17;102157.09;5059320;28;20362;-83
2021/03/01 02:42:31;;;;;;;;;;;;;;;11.28;43.08;102158.72;5055081;28;19912;-82
2021/03/01 02:45:16;;;;;;;;;;;;;;;11.34;42.51;102155.66;5064515;28;19920;-80
2021/03/01 02:48:02;;;;;;;;;;;;;;;11.31;41.95;102153.53;5061811;28;19913;-83
2021/03/01 02:50:47;;;;;;;;;;;;;;;11.33;41.94;102154.03;5061988;28;20370;-81
2021/03/01 02:53:33;;;;;;;;;;;;;;;11.32;42.24;102155.16;5044941;28;20325;-81
2021/03/01 02:56:19;;;;;;;;;;;;;;;11.32;41.48;102148.91;5041602;28;20307;-80
2021/03/01 02:59:04;;;;;;;;;;;;;;;11.30;41.32;102145.63;5078019;28;20456;-83
2021/03/01 03:01:49;;;;;;;;;;;;;;;11.30;40.79;102156.53;5060120;28;20382;-80
2021/03/01 03:04:35;;;;;;;;;;;;;;;11.21;40.40;102150.06;5046097;28;19912;-81
2021/03/01 03:07:21;;;;;;;;;;;;;;;11.12;40.82;102147.16;5059662;28;19913;-82
2021/03/01 03:10:07;;;;;;;;;;;;;;;11.06;41.04;102154.53;5058290;28;20378;-82
2021/03/01 03:12:52;;;;;;;;;;;;;;;11.15;40.67;102168.34;5050079;28;19916;-80
2021/03/01 03:15:39;;;;;;;;;;;;;;;11.09;40.54;102161.31;5048216;28;19920;-80
2021/03/01 03:18:24;;;;;;;;;;;;;;;11.06;40.26;102159.97;5060433;28;19913;-81
2021/03/01 03:21:10;;;;;;;;;;;;;;;10.96;40.78;102157.31;5064095;28;19912;-80
2021/03/01 03:23:54;;;;;;;;;;;;;;;10.96;40.39;102159.25;5073176;28;19913;-80
2021/03/01 03:26:40;;;;;;;;;;;;;;;10.90;40.66;102161.16;5042385;28;19920;-81
2021/03/01 03:29:25;;;;;;;;;;;;;;;10.87;40.62;102153.56;5039807;28;19912;-80
2021/03/01 03:32:09;;;;;;;;;;;;;;;10.85;41.28;102161.19;5040799;28;19916;-81
2021/03/01 03:34:54;;;;;;;;;;;;;;;10.78;41.24;102160.69;5050079;28;19912;-80
2021/03/01 03:37:48;;;;;;;;;;;;;;;10.77;41.38;102159.06;5077464;28;19912;-82
2021/03/01 03:40:33;;;;;;;;;;;;;;;10.73;41.64;102150.66;5050537;28;19912;-80
2021/03/01 03:43:19;;;;;;;;;;;;;;;10.76;41.73;102149.28;5044680;28;19912;-80
2021/03/01 03:46:04;;;;;;;;;;;;;;;10.69;41.96;102154.22;5073698;28;19912;-79
2021/03/01 03:48:50;;;;;;;;;;;;;;;10.64;42.07;102154.25;5064132;28;19912;-81
2021/03/01 03:51:36;;;;;;;;;;;;;;;10.61;41.91;102143.94;5062462;28;19916;-79
2021/03/01 03:54:22;;;;;;;;;;;;;;;10.58;42.12;102137.13;5075454;28;20386;-78
2021/03/01 03:57:08;;;;;;;;;;;;;;;10.57;42.02;102143.66;5076224;28;19912;-78
2021/03/01 03:59:55;;;;;;;;;;;;;;;10.54;41.13;102146.94;5060207;28;20302;-79
2021/03/01 04:02:41;;;;;;;;;;;;;;;10.47;41.51;102148.34;5043708;28;19912;-80
2021/03/01 04:05:28;;;;;;;;;;;;;;;10.44;41.29;102148.91;5055256;28;19912;-80
2021/03/01 04:08:14;;;;;;;;;;;;;;;10.41;41.14;102149.47;5060094;28;19916;-79
2021/03/01 04:10:59;;;;;;;;;;;;;;;10.40;41.32;102143.22;5074244;28;20379;-79
2021/03/01 04:13:45;;;;;;;;;;;;;;;10.38;41.25;102145.38;5074183;28;20282;-82
2021/03/01 04:16:30;;;;;;;;;;;;;;;10.33;41.48;102141.88;5051561;28;19912;-80
2021/03/01 04:19:16;;;;;;;;;;;;;;;10.37;41.62;102143.75;5070536;28;20371;-80
2021/03/01 04:22:01;;;;;;;;;;;;;;;10.31;41.06;102141.34;5042088;28;19912;-78
2021/03/01 04:24:48;;;;;;;;;;;;;;;10.26;41.29;102139.44;5048955;28;19912;-79
2021/03/01 04:27:37;;;;;;;;;;;;;;;10.26;41.19;102142.97;5060676;28;20294;-78
2021/03/01 04:30:23;;;;;;;;;;;;;;;10.27;40.93;102141.91;5047002;28;19916;-79
2021/03/01 04:33:08;;;;;;;;;;;;;;;10.23;40.90;102143.56;5060208;28;20294;-79
2021/03/01 04:35:55;;;;;;;;;;;;;;;10.17;41.33;102144.66;5070283;28;19912;-77
2021/03/01 04:38:40;;;;;;;;;;;;;;;10.19;41.55;102145.22;5060994;28;19913;-78
2021/03/01 04:41:25;;;;;;;;;;;;;;;10.23;41.33;102143.56;5059344;28;19912;-79
2021/03/01 04:44:11;;;;;;;;;;;;;;;10.23;41.11;102143.56;5058819;28;19912;-78
2021/03/01 04:46:56;;;;;;;;;;;;;;;10.18;40.58;102140.84;5061275;28;19913;-78
2021/03/01 04:49:44;;;;;;;;;;;;;;;10.14;40.67;102137.03;5059744;28;20394;-78
2021/03/01 04:52:31;;;;;;;;;;;;;;;10.11;41.32;102134.84;5046550;28;20382;-78
2021/03/01 04:55:17;;;;;;;;;;;;;;;10.07;40.81;102133.78;5073443;28;19912;-77
2021/03/01 04:58:01;;;;;;;;;;;;;;;10.07;40.88;102127.53;5056552;28;19916;-77
2021/03/01 05:00:46;;;;;;;;;;;;;;;10.09;41.04;102133.53;5056845;28;19913;-77
2021/03/01 05:03:32;;;;;;;;;;;;;;;10.03;41.43;102123.75;5042164;28;19913;-79
2021/03/01 05:06:18;;;;;;;;;;;;;;;10.03;41.52;102124.56;5066003;28;19913;-81
2021/03/01 05:09:03;;;;;;;;;;;;;;;10.08;41.87;102124.56;5070602;28;19912;-81
2021/03/01 05:11:48;;;;;;;;;;;;;;;10.06;41.51;102120.47;5069157;28;19916;-81
2021/03/01 05:14:33;;;;;;;;;;;;;;;10.02;41.44;102120.22;5066289;28;20382;-81
2021/03/01 05:17:17;;;;;;;;;;;;;;;10.02;41.62;102119.41;5057047;28;19912;-80
2021/03/01 05:20:02;;;;;;;;;;;;;;;10.00;41.60;102119.69;5076976;28;19916;-80
2021/03/01 05:22:47;;;;;;;;;;;;;;;9.98;41.95;102121.88;5053724;28;19912;-80
2021/03/01 05:25:32;;;;;;;;;;;;;;;9.94;42.25;102122.69;5045080;28;19916;-81
2021/03/01 05:28:17;;;;;;;;;;;;;;;9.97;41.70;102114.78;5063689;28;19913;-81
2021/03/01 05:31:01;;;;;;;;;;;;;;;9.96;41.88;102113.16;5052017;28;19916;-82
2021/03/01 05:33:45;;;;;;;;;;;;;;;9.98;41.94;102113.72;5061380;28;20445;-81
2021/03/01 05:36:30;;;;;;;;;;;;;;;9.99;41.82;102109.91;5083029;28;19912;-80
2021/03/01 05:39:15;;;;;;;;;;;;;;;10.00;42.01;102110.72;5065388;28;19912;-80
2021/03/01 05:42:01;;;;;;;;;;;;;;;10.04;43.06;102115.31;5062316;28;19913;-80
2021/03/01 05:44:45;;;;;;;;;;;;;;;10.11;43.48;102107.69;5051319;28;19913;-79
2021/03/01 05:47:30;;;;;;;;;;;;;;;10.19;47.26;102112.59;5047121;28;20378;-79
2021/03/01 05:50:16;;;;;;;;;;;;;;;10.24;50.23;102107.13;5073499;28;19912;-81
2021/03/01 05:53:02;;;;;;;;;;;;;;;10.32;49.38;102123.94;5077221;28;19916;-78
2021/03/01 05:55:47;;;;;;;;;;;;;;;10.33;44.38;102125.56;5059369;28;19912;-80
2021/03/01 05:58:33;;;;;;;;;;;;;;;10.27;43.35;102127.50;5059861;28;19916;-78
2021/03/01 06:01:18;;;;;;;;;;;;;;;10.23;42.28;102132.69;5066522;28;19912;-79
2021/03/01 06:04:04;;;;;;;;;;;;;;;10.19;42.95;102131.63;5049713;28;19916;-81
2021/03/01 06:06:50;;;;;;;;;;;;;;;10.16;42.56;102136.78;5062744;28;19913;-79
2021/03/01 06:09:34;;;;;;;;;;;;;;;10.14;42.16;102139.75;5048575;28;19912;-81
2021/03/01 06:12:20;;;;;;;;;;;;;;;10.12;41.85;102135.66;5062970;28;19917;-82
2021/03/01 06:15:05;;;;;;;;;;;;;;;10.06;41.68;102132.16;5049542;28;19912;-79
2021/03/01 06:18:09;;;;;;;;;;;;;;;10.11;43.66;102132.13;5073315;28;19912;-83
2021/03/01 06:21:07;;;;;;;;;;;;;;;10.18;45.83;102142.75;5044072;28;19912;-80
2021/03/01 06:23:53;;;;;;;;;;;;;;;10.25;44.23;102148.72;5058342;28;19912;-80
2021/03/01 06:26:38;;;;;;;;;;;;;;;10.27;44.19;102150.06;5059176;28;20374;-79
2021/03/01 06:29:23;;;;;;;;;;;;;;;10.24;45.02;102155.25;5074003;28;19912;-81
2021/03/01 06:32:10;;;;;;;;;;;;;;;10.27;42.94;102151.97;5063240;28;20398;-83
2021/03/01 06:34:55;;;;;;;;;;;;;;;10.28;44.43;102159.03;5037223;28;19916;-85
2021/03/01 06:37:40;;;;;;;;;;;;;;;10.21;45.53;102151.16;5058116;28;19912;-81
2021/03/01 06:40:25;;;;;;;;;;;;;;;10.34;44.34;102168.81;5056033;28;19912;-81
2021/03/01 06:43:10;;;;;;;;;;;;;;;10.27;43.65;102171.00;5061024;28;19912;-83
2021/03/01 06:46:04;;;;;;;;;;;;;;;10.25;43.11;102176.72;5043219;28;19912;-81
2021/03/01 06:48:50;;;;;;;;;;;;;;;10.25;42.33;102184.88;5040216;28;19912;-84
2021/03/01 06:51:34;;;;;;;;;;;;;;;10.40;42.41;102180.47;5055546;28;19942;-81
2021/03/01 06:54:23;;;;;;;;;;;;;;;10.36;41.69;102184.84;5063681;28;19912;-82
2021/03/01 06:57:24;;;;;;;;;;;;;;;10.39;41.70;102182.38;5057300;28;19912;-83
2021/03/01 07:00:09;;;;;;;;;;;;;;;10.46;41.58;102185.63;5053141;28;19912;-82
2021/03/01 07:02:56;;;;;;;;;;;;;;;10.48;41.42;102190.75;5045264;28;20385;-82
2021/03/01 07:05:52;;;;;;;;;;;;;;;10.46;41.12;102198.41;5059441;28;19916;-82
2021/03/01 07:08:52;;;;;;;;;;;;;;;10.45;41.80;102207.66;5038409;28;19913;-81
2021/03/01 07:11:37;;;;;;;;;;;;;;;10.41;42.08;102215.56;5064050;28;19942;-82
2021/03/01 07:14:23;;;;;;;;;;;;;;;10.42;42.37;102219.88;5039824;28;19912;-82
2021/03/01 07:17:08;;;;;;;;;;;;;;;10.42;42.25;102221.78;5050536;28;19920;-80
2021/03/01 07:19:53;;;;;;;;;;;;;;;10.40;42.65;102213.09;5045002;28;19916;-82
2021/03/01 07:22:39;;;;;;;;;;;;;;;10.43;43.05;102213.34;5047242;28;20394;-81
2021/03/01 07:25:24;;;;;;;;;;;;;;;10.39;43.32;102217.72;5062002;28;19913;-80
2021/03/01 07:28:09;;;;;;;;;;;;;;;10.52;43.97;102221.75;5048926;28;19920;-81
2021/03/01 07:30:54;;;;;;;;;;;;;;;10.47;43.67;102216.31;5061642;28;19912;-80
2021/03/01 07:33:38;;;;;;;;;;;;;;;10.50;42.89;102221.22;5062854;28;19912;-81
2021/03/01 07:36:23;;;;;;;;;;;;;;;10.51;43.27;102225.59;5049575;23;19925;-82
2021/03/01 07:39:09;;;;;;;;;;;;;;;10.48;43.47;102220.69;5045257;28;19917;-82
2021/03/01 07:41:54;;;;;;;;;;;;;;;9.91;45.25;102216.44;5064439;28;19913;-82
2021/03/01 07:44:39;;;;;;;;;;;;;;;9.16;47.24;102218.03;5052344;28;19913;-82
2021/03/01 07:47:28;;;;;;;;;;;;;;;8.56;50.19;102222.22;5034333;28;19917;-81
2021/03/01 07:50:31;;;;;;;;;;;;;;;8.44;51.73;102218.88;5051816;28;19917;-83
2021/03/01 07:53:35;;;;;;;;;;;;;;;8.47;50.65;102217.56;5050432;28;19917;-82
2021/03/01 07:56:22;;;;;;;;;;;;;;;8.21;51.35;102221.19;5049574;28;19912;-81
2021/03/01 07:59:08;;;;;;;;;;;;;;;8.20;51.06;102225.78;5034012;28;19913;-82
2021/03/01 08:02:07;;;;;;;;;;;;;;;8.06;52.11;102222.72;5045095;28;20387;-82
2021/03/01 08:04:53;;;;;;;;;;;;;;;8.15;51.82;102220.31;5043575;28;19917;-81
2021/03/01 08:07:42;;;;;;;;;;;;;;;8.02;51.82;102226.22;5050113;28;20475;-82
2021/03/01 08:10:27;;;;;;;;;;;;;;;7.81;53.21;102221.72;5045830;28;19913;-82
2021/03/01 08:13:11;;;;;;;;;;;;;;;8.08;52.59;102225.16;5047303;28;19920;-83
2021/03/01 08:16:16;;;;;;;;;;;;;;;8.07;53.12;102223.53;5048062;28;20298;-81
2021/03/01 08:19:01;;;;;;;;;;;;;;;8.02;53.22;102220.81;5045707;28;19912;-82
2021/03/01 08:22:05;;;;;;;;;;;;;;;8.47;52.07;102222.97;5042726;28;20291;-83
2021/03/01 08:24:54;;;;;;;;;;;;;;;8.41;51.62;102218.59;5048593;28;19942;-81
2021/03/01 08:27:38;;;;;;;;;;;;;;;8.58;52.46;102224.66;5026115;28;19916;-82
2021/03/01 08:30:24;;;;;;;;;;;;;;;8.69;51.00;102220.06;5040574;28;19912;-82
2021/03/01 08:33:08;;;;;;;;;;;;;;;8.64;51.44;102217.34;5041670;28;19932;-82
2021/03/01 08:36:00;;;;;;;;;;;;;;;8.94;53.30;102225.56;5037461;28;19913;-77
2021/03/01 08:38:53;;;;;;;;;;;;;;;8.99;52.03;102231.84;5049220;28;19913;-77
2021/03/01 08:41:42;;;;;;;;;;;;;;;10.08;49.30;102233.25;5029787;28;19917;-77
2021/03/01 08:44:27;;;;;;;;;;;;;;;9.94;49.04;102242.25;5030039;28;19917;-77
2021/03/01 08:47:13;;;;;;;;;;;;;;;10.79;48.52;102233.06;5047159;28;20330;-78
2021/03/01 08:50:04;;;;;;;;;;;;;;;11.28;46.13;102243.13;5035306;28;19913;-78
2021/03/01 08:52:49;;;;;;;;;;;;;;;10.32;47.40;102235.41;5037863;28;19925;-78
2021/03/01 08:55:35;;;;;;;;;;;;;;;9.90;48.10;102238.47;5048474;28;20375;-78
2021/03/01 08:58:20;;;;;;;;;;;;;;;11.17;46.70;102238.88;5046942;28;19920;-78
2021/03/01 09:01:05;;;;;;;;;;;;;;;9.82;48.91;102234.38;5044019;28;20371;-78
2021/03/01 09:03:50;;;;;;;;;;;;;;;9.60;49.58;102239.28;5034341;28;20323;-78
2021/03/01 09:06:35;;;;;;;;;;;;;;;9.04;51.14;102238.38;5029156;28;20283;-77
2021/03/01 09:09:21;;;;;;;;;;;;;;;9.40;50.78;102237.34;5034817;28;19913;-78
2021/03/01 09:12:05;;;;;;;;;;;;;;;9.68;50.11;102244.97;5031599;28;19917;-78
2021/03/01 09:14:54;;;;;;;;;;;;;;;9.47;49.91;102242.53;5034502;28;19912;-77
2021/03/01 09:17:39;;;;;;;;;;;;;;;9.55;49.43;102245.50;5024559;28;19913;-80
2021/03/01 09:20:25;;;;;;;;;;;;;;;9.88;48.40;102249.59;5038634;28;19912;-81
2021/03/01 09:23:11;;;;;;;;;;;;;;;10.04;47.71;102243.06;5033523;28;19913;-80
2021/03/01 09:25:56;;;;;;;;;;;;;;;10.13;47.33;102235.97;5034535;28;19913;-82
2021/03/01 09:28:40;;;;;;;;;;;;;;;10.27;47.21;102245.22;5033586;28;19912;-80
2021/03/01 09:31:26;;;;;;;;;;;;;;;10.22;46.69;102247.94;5021254;28;19917;-80
2021/03/01 09:34:11;;;;;;;;;;;;;;;10.37;45.76;102243.56;5048471;28;19912;-80
2021/03/01 09:36:56;;;;;;;;;;;;;;;10.36;46.75;102248.19;5052284;28;19913;-80
2021/03/01 09:39:44;;;;;;;;;;;;;;;10.61;46.15;102250.03;5021342;28;19912;-80
2021/03/01 09:42:28;;;;;;;;;;;;;;;10.52;44.86;102252.47;5038954;28;19913;-80
2021/03/01 09:45:14;;;;;;;;;;;;;;;10.57;44.97;102247.03;5038150;28;19917;-80
2021/03/01 09:48:00;;;;;;;;;;;;;;;10.74;43.83;102246.69;5048626;28;19916;-80
2021/03/01 09:50:46;;;;;;;;;;;;;;;10.80;43.81;102245.59;5033364;28;19913;-80
2021/03/01 09:53:31;;;;;;;;;;;;;;;11.06;42.93;102249.81;5047197;28;19917;-79
2021/03/01 09:56:18;;;;;;;;;;;;;;;10.87;43.41;102251.53;5047256;28;19912;-81
2021/03/01 09:59:02;;;;;;;;;;;;;;;10.99;43.36;102249.28;5050611;28;19951;-80
2021/03/01 10:01:47;;;;;;;;;;;;;;;11.18;42.76;102252.19;5035849;28;19912;-79
2021/03/01 10:04:31;;;;;;;;;;;;;;;11.19;42.31;102242.91;5034453;28;19913;-80
2021/03/01 10:07:17;;;;;;;;;;;;;;;11.20;42.09;102244.56;5037659;28;19912;-80
2021/03/01 10:10:11;;;;;;;;;;;;;;;11.37;42.20;102238.72;5036351;28;19913;-80
2021/03/01 10:12:56;;;;;;;;;;;;;;;11.46;40.98;102247.94;5033354;28;19939;-80
2021/03/01 10:15:42;;;;;;;;;;;;;;;11.59;41.36;102247.28;5022070;28;19912;-80
2021/03/01 10:18:27;;;;;;;;;;;;;;;11.62;40.97;102246.72;5033497;28;19912;-80
2021/03/01 10:21:15;;;;;;;;;;;;;;;11.80;40.77;102243.31;5033847;28;19913;-80
2021/03/01 10:24:00;;;;;;;;;;;;;;;11.88;40.68;102250.06;5021679;28;20291;-80
2021/03/01 10:26:49;;;;;;;;;;;;;;;11.86;40.32;102252.25;5047224;28;19912;-81
2021/03/01 10:29:36;;;;;;;;;;;;;;;11.72;40.19;102251.28;5048118;28;19913;-80
2021/03/01 10:32:25;;;;;;;;;;;;;;;11.92;40.66;102251.94;5034927;28;19917;-80
2021/03/01 10:35:17;;;;;;;;;;;;;;;12.04;40.12;102250.75;5035187;28;19913;-80
2021/03/01 10:38:03;;;;;;;;;;;;;;;12.26;40.17;102246.41;5045879;28;19913;-81
2021/03/01 10:40:49;;;;;;;;;;;;;;;12.43;40.03;102245.97;5036819;28;19917;-81
2021/03/01 10:43:33;;;;;;;;;;;;;;;12.32;39.52;102245.28;5020724;28;19920;-80
2021/03/01 10:46:28;;;;;;;;;;;;;;;12.55;38.97;102242.81;5030862;28;19913;-80
2021/03/01 10:49:18;;;;;;;;;;;;;;;12.61;39.24;102237.00;5023666;28;19913;-80
2021/03/01 10:52:06;;;;;;;;;;;;;;;12.53;38.80;102239.59;5059106;28;19917;-80
2021/03/01 10:54:52;;;;;;;;;;;;;;;12.54;36.41;102242.03;5036428;28;19912;-81
2021/03/01 10:57:36;;;;;;;;;;;;;;;12.58;36.23;102240.34;5037373;28;19913;-81
2021/03/01 11:00:21;;;;;;;;;;;;;;;12.81;36.21;102236.75;5036302;28;19913;-81
2021/03/01 11:03:07;;;;;;;;;;;;;;;12.91;36.46;102235.00;5053525;28;19912;-81
2021/03/01 11:05:51;;;;;;;;;;;;;;;13.09;36.43;102236.94;5037844;28;20411;-81
2021/03/01 11:08:36;;;;;;;;;;;;;;;13.25;36.19;102233.75;5025434;28;19925;-82
2021/03/01 11:11:20;;;;;;;;;;;;;;;13.44;36.19;102233.72;5067894;28;19912;-81
2021/03/01 11:14:06;;;;;;;;;;;;;;;13.16;36.11;102226.47;5035273;28;19917;-80
2021/03/01 11:16:53;;;;;;;;;;;;;;;13.49;36.30;102232.81;5040776;28;19912;-83
2021/03/01 11:19:37;;;;;;;;;;;;;;;13.73;35.85;102232.69;5036057;28;19921;-80
2021/03/01 11:22:22;;;;;;;;;;;;;;;13.90;35.58;102224.75;5051802;28;19917;-80
2021/03/01 11:25:07;;;;;;;;;;;;;;;13.88;33.52;102226.97;5036992;28;19912;-80
2021/03/01 11:27:51;;;;;;;;;;;;;;;14.04;33.73;102220.13;5025481;28;19917;-80
2021/03/01 11:30:37;;;;;;;;;;;;;;;14.07;32.12;102220.31;5036227;28;19917;-81
2021/03/01 11:33:21;;;;;;;;;;;;;;;13.96;32.63;102212.63;5038716;28;20383;-83
2021/03/01 11:36:07;;;;;;;;;;;;;;;14.20;32.37;102209.69;5051485;28;19913;-80
2021/03/01 11:38:53;;;;;;;;;;;;;;;14.35;30.82;102210.22;5047326;28;19999;-81
2021/03/01 11:41:38;;;;;;;;;;;;;;;14.39;30.75;102197.56;5034119;28;19913;-81
2021/03/01 11:44:23;;;;;;;;;;;;;;;14.64;31.25;102198.16;5050934;28;20372;-81
2021/03/01 11:47:08;;;;;;;;;;;;;;;14.99;30.17;102195.44;5040871;28;19913;-81
2021/03/01 11:49:52;;;;;;;;;;;;;;;15.41;29.28;102199.69;5028396;28;19912;-81
2021/03/01 11:52:36;;;;;;;;;;;;;;;15.64;29.39;102191.47;5035245;28;19921;-81
2021/03/01 11:55:21;;;;;;;;;;;;;;;15.93;27.87;102186.31;5049091;28;19916;-80
2021/03/01 11:58:06;;;;;;;;;;;;;;;16.39;27.53;102193.28;5037959;28;19913;-80
2021/03/01 12:00:51;;;;;;;;;;;;;;;16.86;24.42;102188.91;5034349;28;19913;-80
2021/03/01 12:03:36;;;;;;;;;;;;;;;18.82;20.49;102177.69;5035294;28;19913;-79
2021/03/01 12:06:20;;;;;;;;;;;;;;;24.53;16.03;102189.25;5046856;28;19921;-80
2021/03/01 12:09:05;;;;;;;;;;;;;;;27.79;12.48;102180.91;5040872;28;19913;-81
2021/03/01 12:11:50;;;;;;;;;;;;;;;30.54;10.17;102183.75;5049228;28;19916;-81
2021/03/01 12:14:34;;;;;;;;;;;;;;;34.48;8.14;102187.78;5037661;28;19913;-81
2021/03/01 12:17:20;;;;;;;;;;;;;;;35.64;6.94;102185.56;5035405;28;19916;-81
2021/03/01 12:20:05;;;;;;;;;;;;;;;37.75;5.88;102189.63;5032377;28;19916;-81
2021/03/01 12:22:50;;;;;;;;;;;;;;;39.61;4.57;102196.66;5035680;28;19913;-81
2021/03/01 12:25:36;;;;;;;;;;;;;;;36.93;5.65;102192.81;5048539;28;19916;-80
2021/03/01 12:28:22;;;;;;;;;;;;;;;38.00;5.18;102189.38;5036147;28;20391;-81
2021/03/01 12:31:07;;;;;;;;;;;;;;;35.60;6.49;102172.31;5046066;28;19921;-81
2021/03/01 12:33:51;;;;;;;;;;;;;;;35.51;6.79;102172.19;5045284;28;19916;-82
2021/03/01 12:36:36;;;;;;;;;;;;;;;33.10;7.37;102167.28;5019499;28;19913;-81
2021/03/01 12:39:21;;;;;;;;;;;;;;;35.40;6.10;102168.94;5034625;28;19913;-81
2021/03/01 12:42:07;;;;;;;;;;;;;;;34.83;6.84;102166.22;5038325;28;19912;-81
2021/03/01 12:44:52;;;;;;;;;;;;;;;31.37;8.21;102157.06;5023284;28;19913;-80
2021/03/01 12:47:37;;;;;;;;;;;;;;;38.41;4.95;102162.41;5040687;28;19913;-82
2021/03/01 12:50:21;;;;;;;;;;;;;;;35.59;5.62;102153.75;5023920;28;19913;-84
2021/03/01 12:53:06;;;;;;;;;;;;;;;36.20;6.12;102152.53;5037040;28;19916;-83
2021/03/01 12:55:51;;;;;;;;;;;;;;;39.03;3.74;102153.50;5032931;28;19913;-83
2021/03/01 12:58:35;;;;;;;;;;;;;;;37.33;4.58;102149.56;5051266;28;19913;-83
2021/03/01 13:01:20;;;;;;;;;;;;;;;38.20;4.27;102149.19;5031946;28;20403;-83
2021/03/01 13:04:04;;;;;;;;;;;;;;;39.27;4.20;102148.69;5030071;28;20307;-83
2021/03/01 13:06:50;;;;;;;;;;;;;;;40.88;3.01;102157.06;5047127;28;20327;-83
2021/03/01 13:09:35;;;;;;;;;;;;;;;38.71;4.47;102150.09;5034611;28;19912;-83
2021/03/01 13:12:20;;;;;;;;;;;;;;;38.43;4.20;102151.38;5022084;28;19920;-83
2021/03/01 13:15:06;;;;;;;;;;;;;;;42.20;2.77;102156.72;5035301;28;19913;-83
2021/03/01 13:17:51;;;;;;;;;;;;;;;39.72;3.61;102142.75;5032307;28;19913;-83
2021/03/01 13:20:36;;;;;;;;;;;;;;;36.35;4.86;102130.94;5022086;28;19913;-83
2021/03/01 13:23:21;;;;;;;;;;;;;;;34.23;5.89;102127.09;5057764;28;19913;-83
2021/03/01 13:26:05;;;;;;;;;;;;;;;31.28;7.49;102122.25;5053762;28;19913;-82
2021/03/01 13:28:52;;;;;;;;;;;;;;;35.07;6.12;102130.72;5034131;28;19913;-83
2021/03/01 13:31:36;;;;;;;;;;;;;;;34.98;5.61;102125.75;5033883;28;19913;-83
2021/03/01 13:34:21;;;;;;;;;;;;;;;36.65;4.55;102123.00;5034320;28;20314;-82
2021/03/01 13:37:05;;;;;;;;;;;;;;;39.04;3.58;102126.63;5068201;22;19920;-80
2021/03/01 13:39:50;;;;;;;;;;;;;;;37.28;3.81;102125.41;5053866;28;19916;-78
2021/03/01 13:42:37;;;;;;;;;;;;;;;36.64;4.40;102124.25;5045915;28;19912;-77
2021/03/01 13:45:22;;;;;;;;;;;;;;;36.91;3.67;102118.75;5046537;28;19913;-79
2021/03/01 13:48:07;;;;;;;;;;;;;;;39.69;3.23;102126.66;5036485;28;19916;-78
2021/03/01 13:50:52;;;;;;;;;;;;;;;33.41;5.52;102119.06;5044590;28;19912;-77
2021/03/01 13:53:37;;;;;;;;;;;;;;;34.36;5.26;102121.47;5033847;28;19924;-78
2021/03/01 13:56:24;;;;;;;;;;;;;;;35.21;4.59;102116.16;5032003;28;20374;-77
2021/03/01 13:59:11;;;;;;;;;;;;;;;37.78;4.11;102124.16;5035348;28;20318;-76
2021/03/01 14:01:57;;;;;;;;;;;;;;;37.75;3.41;102121.44;5039396;28;19912;-78
2021/03/01 14:04:43;;;;;;;;;;;;;;;33.33;5.84;102112.78;5025265;28;19916;-78
2021/03/01 14:07:28;;;;;;;;;;;;;;;34.06;5.75;102116.25;5041529;28;20371;-77
2021/03/01 14:10:14;;;;;;;;;;;;;;;37.01;4.08;102114.69;5040035;28;19917;-76
2021/03/01 14:12:58;;;;;;;;;;;;;;;32.91;6.35;102111.72;5038240;28;19924;-77
2021/03/01 14:15:44;;;;;;;;;;;;;;;33.71;5.78;102115.94;5037890;28;20375;-77
2021/03/01 14:18:30;;;;;;;;;;;;;;;33.87;5.59;102110.28;5030005;28;19913;-77